Time;durP1;ratioP1;P1;durP2;ratioP2;P2;SDS_P1;SDS_P2;PMS_P1;PMS_P2;Temp;Humidity;BMP_temperature;BMP_pressure;BME280_temperature;BME280_humidity;BME280_pressure;Samples;Min_cycle;Max_cycle;Signal;HPM_P1;HPM_P2
2022/08/30 00:01:08;;;;;;;;;5.00;4.75;;;;;23.17;41.87;101139.97;5090245;28;45426;-83
2022/08/30 00:03:42;;;;;;;;;3.00;3.00;;;;;23.27;42.41;101154.16;5093591;28;45340;-83
2022/08/30 00:06:08;;;;;;;;;3.25;2.00;;;;;23.28;42.00;101155.03;5091895;28;45107;-83
2022/08/30 00:08:35;;;;;;;;;5.75;4.75;;;;;23.26;42.14;101156.88;5092348;28;46096;-83
2022/08/30 00:11:01;;;;;;;;;3.75;3.75;;;;;23.12;41.96;101144.50;5091451;28;45273;-83
2022/08/30 00:13:28;;;;;;;;;6.50;5.75;;;;;23.22;42.09;101155.13;5092562;27;45164;-83
2022/08/30 00:15:53;;;;;;;;;4.25;3.50;;;;;23.14;41.89;101137.31;5093436;28;45072;-84
2022/08/30 00:18:21;;;;;;;;;5.00;4.25;;;;;23.25;42.34;101165.78;5091316;28;45409;-84
2022/08/30 00:20:48;;;;;;;;;3.75;3.00;;;;;23.26;42.04;101168.47;5091681;28;45281;-82
2022/08/30 00:23:14;;;;;;;;;5.00;5.00;;;;;23.25;42.35;101161.34;5093051;28;45089;-83
2022/08/30 00:25:40;;;;;;;;;4.00;4.00;;;;;23.15;42.22;101144.47;5089693;28;45191;-83
2022/08/30 00:28:05;;;;;;;;;8.00;5.00;;;;;23.26;42.13;101167.59;5093285;28;45571;-83
2022/08/30 00:30:30;;;;;;;;;4.00;4.00;;;;;23.22;41.97;101155.13;5093479;28;44965;-83
2022/08/30 00:32:56;;;;;;;;;4.75;3.75;;;;;23.24;42.25;101148.81;5090266;28;45299;-83
2022/08/30 00:35:22;;;;;;;;;4.00;4.00;;;;;23.16;41.90;101135.50;5089431;28;45040;-82
2022/08/30 00:37:49;;;;;;;;;3.75;3.50;;;;;23.23;41.72;101152.41;5091611;28;45784;-84
2022/08/30 00:40:16;;;;;;;;;0.25;0.25;;;;;23.04;42.08;101119.53;5092905;28;45617;-83
2022/08/30 00:42:43;;;;;;;;;1.00;1.00;;;;;23.17;42.06;101142.66;5090251;28;45338;-83
2022/08/30 00:45:21;;;;;;;;;4.00;4.00;;;;;23.19;42.01;101147.97;5092599;28;45049;-82
2022/08/30 00:47:47;;;;;;;;;6.00;4.00;;;;;23.03;41.63;101116.88;5092225;28;46737;-83
2022/08/30 00:50:15;;;;;;;;;7.25;5.50;;;;;23.06;41.76;101138.31;5090511;28;45054;-83
2022/08/30 00:52:45;;;;;;;;;4.00;4.00;;;;;23.11;42.15;101153.44;5091482;28;45143;-82
2022/08/30 00:55:13;;;;;;;;;1.00;0.00;;;;;23.06;41.98;101149.91;5092517;28;45143;-83
2022/08/30 00:57:39;;;;;;;;;4.25;3.00;;;;;23.06;42.25;101154.41;5090376;28;46307;-82
2022/08/30 01:00:06;;;;;;;;;3.75;3.75;;;;;23.00;42.22;101143.72;5090458;27;45098;-83
2022/08/30 01:02:32;;;;;;;;;4.00;3.75;;;;;23.06;42.33;101160.66;5091779;27;44985;-83
2022/08/30 01:05:00;;;;;;;;;4.00;4.00;;;;;22.95;42.19;101137.50;5092355;28;45083;-83
2022/08/30 01:07:26;;;;;;;;;3.00;3.00;;;;;23.00;42.45;101143.72;5091842;28;45525;-83
2022/08/30 01:09:51;;;;;;;;;4.00;3.50;;;;;22.89;42.15;101119.69;5089389;28;45057;-82
2022/08/30 01:12:17;;;;;;;;;5.00;4.00;;;;;23.05;42.35;101157.97;5090120;28;44993;-82
2022/08/30 01:14:43;;;;;;;;;4.00;3.00;;;;;23.02;42.30;101152.66;5091836;28;44908;-83
2022/08/30 01:17:08;;;;;;;;;3.50;3.25;;;;;22.87;41.87;101138.47;5087233;28;45760;-83
2022/08/30 01:19:50;;;;;;;;;3.25;3.25;;;;;23.01;41.91;101162.50;5092182;28;44947;-83
2022/08/30 01:22:37;;;;;;;;;4.75;4.00;;;;;22.97;42.43;101168.78;5088857;28;45024;-83
2022/08/30 01:25:07;;;;;;;;;3.00;3.00;;;;;22.91;42.67;101172.41;5089682;28;44927;-82
2022/08/30 01:27:35;;;;;;;;;6.00;5.00;;;;;22.91;42.45;101171.53;5090156;28;45159;-83
2022/08/30 01:30:01;;;;;;;;;5.50;4.00;;;;;22.85;42.54;101174.19;5089720;28;45579;-83
2022/08/30 01:32:28;;;;;;;;;3.00;3.00;;;;;22.94;42.63;101189.34;5090200;28;44973;-83
2022/08/30 01:34:55;;;;;;;;;3.25;3.25;;;;;22.97;43.02;101200.06;5073748;28;45273;-83
2022/08/30 01:37:30;;;;;;;;;4.25;3.75;;;;;22.94;43.25;101202.75;5090977;28;45635;-82
2022/08/30 01:39:55;;;;;;;;;4.50;4.00;;;;;22.90;43.92;101200.09;5091565;28;45181;-83
2022/08/30 01:42:21;;;;;;;;;5.00;4.25;;;;;22.75;44.70;101184.13;5090068;28;45095;-82
2022/08/30 01:44:47;;;;;;;;;6.50;5.75;;;;;22.80;44.92;101190.31;5091671;28;45060;-82
2022/08/30 01:47:14;;;;;;;;;5.50;5.00;;;;;22.74;45.83;101189.50;5089002;28;45615;-83
2022/08/30 01:49:40;;;;;;;;;6.00;5.50;;;;;22.65;45.81;101194.03;5090343;28;45454;-83
2022/08/30 01:52:06;;;;;;;;;3.50;2.75;;;;;22.46;46.11;101176.31;5091972;28;45240;-83
2022/08/30 01:54:35;;;;;;;;;4.75;4.00;;;;;22.49;46.97;101194.16;5090920;28;45018;-82
2022/08/30 01:57:02;;;;;;;;;7.00;5.50;;;;;22.43;46.45;101189.75;5088900;28;45395;-82
2022/08/30 01:59:27;;;;;;;;;6.25;5.00;;;;;22.35;47.12;101184.41;5089423;28;45851;-83
2022/08/30 02:01:53;;;;;;;;;4.00;4.00;;;;;22.25;47.43;101168.44;5086120;28;45299;-83
2022/08/30 02:04:19;;;;;;;;;3.75;3.75;;;;;22.21;47.53;101155.97;5088989;28;45417;-83
2022/08/30 02:06:45;;;;;;;;;3.50;3.50;;;;;22.22;48.31;101174.72;5087890;28;45498;-82
2022/08/30 02:09:11;;;;;;;;;6.00;4.00;;;;;22.14;48.14;101157.78;5090355;28;44988;-83
2022/08/30 02:11:37;;;;;;;;;6.00;6.00;;;;;22.20;48.04;101181.84;5087377;28;45112;-83
2022/08/30 02:14:03;;;;;;;;;5.00;5.00;;;;;22.13;48.03;101170.28;5086819;28;45041;-83
2022/08/30 02:16:28;;;;;;;;;4.25;4.25;;;;;22.11;48.25;101176.53;5090114;28;47530;-83
2022/08/30 02:18:55;;;;;;;;;5.00;5.00;;;;;22.15;47.97;101189.91;5092013;28;44827;-83
2022/08/30 02:21:21;;;;;;;;;6.50;5.00;;;;;22.09;48.41;101181.88;5090503;28;44969;-83
2022/08/30 02:23:47;;;;;;;;;4.00;4.00;;;;;22.17;47.71;101197.03;5091448;28;45191;-83
2022/08/30 02:26:13;;;;;;;;;4.50;3.75;;;;;22.15;47.70;101194.38;5088555;28;45892;-83
2022/08/30 02:28:39;;;;;;;;;6.25;6.00;;;;;22.13;48.20;101185.47;5089990;28;45175;-83
2022/08/30 02:31:04;;;;;;;;;6.00;4.75;;;;;22.01;48.35;101166.75;5087314;28;45473;-83
2022/08/30 02:33:30;;;;;;;;;5.25;5.00;;;;;22.05;48.04;101174.75;5089979;28;45004;-83
2022/08/30 02:35:56;;;;;;;;;7.25;6.50;;;;;22.00;48.77;101175.69;5071501;28;46679;-83
2022/08/30 02:38:23;;;;;;;;;5.00;5.00;;;;;21.92;49.57;101174.81;5090299;28;45040;-82
2022/08/30 02:40:49;;;;;;;;;7.00;5.75;;;;;21.82;48.84;101172.22;5087810;28;45101;-83
2022/08/30 02:43:15;;;;;;;;;5.00;5.00;;;;;21.76;49.36;101169.56;5090109;28;45462;-83
2022/08/30 02:45:41;;;;;;;;;7.25;4.50;;;;;21.52;49.38;101138.44;5086259;28;46435;-83
2022/08/30 02:48:06;;;;;;;;;6.25;3.25;;;;;21.68;49.66;101179.44;5090498;28;44906;-82
2022/08/30 02:50:32;;;;;;;;;5.00;5.00;;;;;21.61;49.52;101174.97;5086514;28;45344;-83
2022/08/30 02:52:57;;;;;;;;;4.75;4.75;;;;;21.62;49.75;101184.78;5088955;28;44966;-83
2022/08/30 02:55:23;;;;;;;;;4.50;3.50;;;;;21.51;50.65;101181.25;5087394;28;48498;-83
2022/08/30 02:57:48;;;;;;;;;4.75;4.75;;;;;21.59;49.85;101211.56;5089171;28;45129;-83
2022/08/30 03:00:17;;;;;;;;;4.25;4.00;;;;;21.50;49.95;101198.22;5090305;28;45692;-82
2022/08/30 03:02:42;;;;;;;;;7.00;6.25;;;;;21.57;50.46;101218.69;5087660;27;45478;-83
2022/08/30 03:05:11;;;;;;;;;5.25;5.00;;;;;21.48;49.51;101206.25;5090698;28;45240;-83
2022/08/30 03:07:36;;;;;;;;;6.25;5.00;;;;;21.48;49.89;101205.34;5089675;28;45170;-83
2022/08/30 03:10:02;;;;;;;;;5.75;5.00;;;;;21.56;49.67;101220.47;5090703;28;44986;-82
2022/08/30 03:12:27;;;;;;;;;5.75;4.25;;;;;21.64;49.69;101226.69;5088065;28;45424;-82
2022/08/30 03:14:52;;;;;;;;;5.00;5.00;;;;;21.64;50.06;101218.66;5088431;28;45504;-83
2022/08/30 03:17:18;;;;;;;;;5.50;5.00;;;;;21.54;50.41;101187.50;5085209;28;44994;-83
2022/08/30 03:19:44;;;;;;;;;6.00;5.25;;;;;21.63;51.10;101200.84;5091172;28;44997;-83
2022/08/30 03:22:11;;;;;;;;;3.50;3.50;;;;;21.63;50.87;101197.28;5088883;28;45037;-82
2022/08/30 03:24:37;;;;;;;;;6.00;6.00;;;;;21.62;51.42;101198.16;5091483;27;46395;-83
2022/08/30 03:27:02;;;;;;;;;7.00;6.00;;;;;21.52;51.35;101166.97;5091393;28;45165;-82
2022/08/30 03:29:28;;;;;;;;;6.00;5.25;;;;;21.58;51.94;101180.34;5089900;28;45293;-82
2022/08/30 03:31:55;;;;;;;;;5.00;4.75;;;;;21.53;51.53;101172.34;5091050;28;45137;-83
2022/08/30 03:34:21;;;;;;;;;4.50;4.50;;;;;21.39;51.35;101142.09;5091613;28;45437;-83
2022/08/30 03:36:48;;;;;;;;;6.50;6.50;;;;;21.52;51.45;101173.22;5072367;28;45361;-82
2022/08/30 03:39:13;;;;;;;;;4.75;4.75;;;;;21.49;51.15;101159.88;5091248;28;45272;-83
2022/08/30 03:41:39;;;;;;;;;7.75;6.00;;;;;21.28;51.30;101123.38;5088647;28;45402;-83
2022/08/30 03:44:04;;;;;;;;;5.00;5.00;;;;;21.42;51.46;101136.69;5093621;28;45710;-82
2022/08/30 03:46:29;;;;;;;;;8.50;7.25;;;;;21.33;51.39;101126.94;5090473;28;45037;-82
2022/08/30 03:48:55;;;;;;;;;7.50;7.50;;;;;21.32;51.44;101130.50;5091605;28;45020;-82
2022/08/30 03:51:21;;;;;;;;;6.00;6.00;;;;;21.23;51.60;101119.81;5092073;28;45076;-83
2022/08/30 03:53:47;;;;;;;;;8.00;6.00;;;;;21.26;52.07;101125.16;5073072;28;46117;-82
2022/08/30 03:56:13;;;;;;;;;7.00;5.75;;;;;21.22;52.18;101131.38;5090429;28;45092;-82
2022/08/30 03:58:39;;;;;;;;;5.00;4.25;;;;;21.12;52.22;101106.47;5093795;28;45210;-83
2022/08/30 04:01:05;;;;;;;;;7.00;6.00;;;;;21.11;52.18;101104.69;5092181;28;45043;-82
2022/08/30 04:03:31;;;;;;;;;7.25;6.00;;;;;21.06;52.68;101084.22;5092632;28;45915;-83
2022/08/30 04:05:56;;;;;;;;;6.25;6.00;;;;;21.15;52.35;101107.38;5092567;28;44977;-83
2022/08/30 04:08:22;;;;;;;;;7.25;7.00;;;;;21.12;52.87;101118.94;5090524;28;45482;-82
2022/08/30 04:10:47;;;;;;;;;8.00;7.25;;;;;21.06;52.54;101118.97;5091457;28;45641;-82
2022/08/30 04:13:14;;;;;;;;;5.50;5.25;;;;;21.05;53.04;101115.41;5091496;28;45681;-82
2022/08/30 04:15:39;;;;;;;;;6.00;6.00;;;;;21.00;53.19;101109.19;5093097;28;45648;-83
2022/08/30 04:18:07;;;;;;;;;9.00;7.00;;;;;20.91;52.95;101095.84;5092278;28;45173;-82
2022/08/30 04:20:33;;;;;;;;;6.00;6.00;;;;;20.96;52.99;101118.09;5091808;28;45133;-82
2022/08/30 04:22:58;;;;;;;;;8.00;7.00;;;;;20.94;53.36;101114.56;5089459;28;45025;-82
2022/08/30 04:25:23;;;;;;;;;9.50;8.00;;;;;20.93;53.54;101120.75;5088789;28;52653;-83
2022/08/30 04:27:49;;;;;;;;;7.25;7.00;;;;;20.92;53.38;101119.00;5091374;28;44894;-83
2022/08/30 04:30:16;;;;;;;;;8.00;7.75;;;;;20.90;53.61;101111.88;5087422;28;45230;-81
2022/08/30 04:32:42;;;;;;;;;7.50;7.50;;;;;20.82;53.54;101111.88;5090312;28;45674;-82
2022/08/30 04:35:08;;;;;;;;;7.25;6.50;;;;;20.85;53.90;101126.13;5091824;28;45142;-82
2022/08/30 04:37:35;;;;;;;;;7.00;6.00;;;;;20.78;53.86;101113.66;5089788;28;45312;-83
2022/08/30 04:40:00;;;;;;;;;7.25;6.25;;;;;20.82;53.99;101123.47;5092083;28;45038;-82
2022/08/30 04:42:30;;;;;;;;;9.00;7.50;;;;;20.81;54.31;101127.03;5086484;28;45439;-83
2022/08/30 04:44:56;;;;;;;;;6.25;5.75;;;;;20.78;54.39;101131.47;5089536;28;45714;-82
2022/08/30 04:47:21;;;;;;;;;8.50;7.25;;;;;20.68;54.71;101114.56;5091205;28;44875;-82
2022/08/30 04:49:46;;;;;;;;;6.50;5.75;;;;;20.80;54.57;101137.72;5092233;28;45592;-83
2022/08/30 04:52:12;;;;;;;;;9.50;7.50;;;;;20.67;55.15;101103.91;5091825;28;45861;-82
2022/08/30 04:54:37;;;;;;;;;6.25;5.75;;;;;20.82;55.13;101122.56;5090949;28;45143;-82
2022/08/30 04:57:05;;;;;;;;;7.00;6.00;;;;;20.82;54.85;101122.56;5089281;28;45427;-83
2022/08/30 04:59:30;;;;;;;;;6.00;5.25;;;;;20.66;55.29;101092.31;5093712;28;45017;-82
2022/08/30 05:01:55;;;;;;;;;6.00;6.00;;;;;20.83;55.37;101121.69;5087672;28;47168;-83
2022/08/30 05:04:21;;;;;;;;;6.33;6.33;;;;;20.82;54.88;101120.78;5091623;28;48997;-82
2022/08/30 05:06:46;;;;;;;;;7.00;6.50;;;;;20.74;55.05;101111.91;5090859;28;45078;-82
2022/08/30 05:09:12;;;;;;;;;6.00;6.00;;;;;20.79;54.93;101122.59;5088718;28;45339;-83
2022/08/30 05:11:37;;;;;;;;;7.00;6.00;;;;;20.83;54.72;101135.91;5082835;28;51290;-83
2022/08/30 05:14:03;;;;;;;;;5.25;5.25;;;;;20.83;54.78;101129.69;5087885;28;45300;-82
2022/08/30 05:16:28;;;;;;;;;7.00;7.00;;;;;20.84;54.67;101139.50;5089022;28;45171;-83
2022/08/30 05:18:54;;;;;;;;;6.50;6.50;;;;;20.81;54.65;101144.84;5089697;28;45374;-82
2022/08/30 05:21:24;;;;;;;;;7.00;6.75;;;;;20.84;54.72;101152.88;5087349;28;45688;-82
2022/08/30 05:23:51;;;;;;;;;8.25;7.00;;;;;20.85;54.69;101143.97;5089975;28;45016;-82
2022/08/30 05:26:20;;;;;;;;;6.00;6.00;;;;;20.81;54.58;101135.03;5089043;28;45055;-83
2022/08/30 05:28:46;;;;;;;;;7.75;7.75;;;;;20.90;54.65;101146.63;5090131;28;45273;-82
2022/08/30 05:31:15;;;;;;;;;7.00;6.00;;;;;20.91;54.44;101148.41;5089324;28;47666;-83
2022/08/30 05:33:41;;;;;;;;;7.00;6.50;;;;;20.84;54.82;101139.50;5089491;28;45424;-83
2022/08/30 05:36:07;;;;;;;;;7.50;7.00;;;;;20.92;54.63;101147.50;5091267;28;45031;-82
2022/08/30 05:38:32;;;;;;;;;7.25;6.75;;;;;20.97;54.90;101151.94;5091611;28;45009;-83
2022/08/30 05:40:57;;;;;;;;;7.00;6.25;;;;;20.97;55.07;101159.97;5089811;28;51441;-83
2022/08/30 05:43:23;;;;;;;;;7.00;6.00;;;;;20.99;54.85;101157.31;5088583;28;58698;-81
2022/08/30 05:45:57;;;;;;;;;8.00;6.75;;;;;21.00;54.66;101149.28;5090701;28;44943;-82
2022/08/30 05:48:22;;;;;;;;;5.25;5.25;;;;;21.04;54.78;101151.06;5090521;28;44892;-82
2022/08/30 05:50:48;;;;;;;;;8.00;7.50;;;;;21.00;54.81;101143.94;5088842;28;45333;-81
2022/08/30 05:53:16;;;;;;;;;6.00;5.00;;;;;21.04;54.57;101151.06;5091438;28;60396;-82
2022/08/30 05:55:41;;;;;;;;;9.25;6.50;;;;;21.02;54.31;101139.47;5086561;28;45030;-83
2022/08/30 05:58:06;;;;;;;;;7.25;6.50;;;;;21.10;54.31;101161.72;5091381;28;45001;-83
2022/08/30 06:00:35;;;;;;;;;5.00;5.00;;;;;21.10;54.11;101159.06;5090328;28;45367;-83
2022/08/30 06:03:01;;;;;;;;;7.25;7.25;;;;;21.11;54.08;101157.28;5086150;28;45835;-83
2022/08/30 06:05:26;;;;;;;;;7.75;7.00;;;;;21.17;53.88;101170.63;5091704;28;45135;-82
2022/08/30 06:07:51;;;;;;;;;5.75;5.00;;;;;21.09;53.77;101151.06;5089257;28;45474;-82
2022/08/30 06:10:17;;;;;;;;;5.00;5.00;;;;;21.22;54.02;101175.94;5087499;28;45189;-82
2022/08/30 06:12:42;;;;;;;;;8.00;7.00;;;;;21.24;53.63;101175.06;5088871;28;45295;-83
2022/08/30 06:15:08;;;;;;;;;7.75;7.25;;;;;21.20;53.56;101161.72;5087089;28;45629;-82
2022/08/30 06:17:33;;;;;;;;;10.00;9.00;;;;;21.17;53.78;101151.00;5091946;28;44844;-82
2022/08/30 06:19:58;;;;;;;;;7.00;6.25;;;;;21.12;53.37;101138.53;5090563;28;45409;-83
2022/08/30 06:22:24;;;;;;;;;7.25;7.00;;;;;21.15;53.52;101140.34;5090651;28;46645;-83
2022/08/30 06:24:49;;;;;;;;;7.50;7.25;;;;;21.12;53.81;101130.53;5090574;28;44954;-83
2022/08/30 06:27:14;;;;;;;;;7.50;6.75;;;;;21.33;53.44;101164.38;5086844;28;45182;-82
2022/08/30 06:29:40;;;;;;;;;8.00;7.00;;;;;21.33;53.42;101166.19;5073034;28;46191;-83
2022/08/30 06:32:05;;;;;;;;;5.25;5.00;;;;;21.17;53.35;101132.31;5085091;28;45401;-83
2022/08/30 06:34:31;;;;;;;;;6.00;6.00;;;;;21.29;53.07;101162.59;5086768;28;46640;-83
2022/08/30 06:36:56;;;;;;;;;8.00;8.00;;;;;21.18;52.85;101147.44;5091165;28;45032;-83
2022/08/30 06:39:21;;;;;;;;;8.00;7.67;;;;;21.16;52.79;101146.56;5070479;28;51614;-83
2022/08/30 06:41:47;;;;;;;;;6.75;6.25;;;;;21.20;52.85;101148.34;5070780;28;45065;-83
2022/08/30 06:44:12;;;;;;;;;6.00;5.50;;;;;21.06;52.90;101124.31;5089234;28;45342;-83
2022/08/30 06:46:38;;;;;;;;;8.00;6.00;;;;;21.35;52.96;101175.06;5089372;28;45091;-83
2022/08/30 06:49:05;;;;;;;;;7.50;6.25;;;;;21.37;52.82;101174.16;5086871;28;47051;-83
2022/08/30 06:51:35;;;;;;;;;7.25;7.00;;;;;21.40;53.08;101181.28;5089297;28;45461;-83
2022/08/30 06:54:01;;;;;;;;;9.75;9.00;;;;;21.42;53.09;101178.59;5087420;28;44910;-82
2022/08/30 06:56:27;;;;;;;;;8.00;7.50;;;;;21.42;52.79;101174.16;5085600;28;45209;-83
2022/08/30 06:58:52;;;;;;;;;8.00;7.50;;;;;21.40;52.49;101172.38;5071138;28;46022;-83
2022/08/30 07:01:22;;;;;;;;;7.75;7.50;;;;;21.43;52.77;101181.31;5092100;28;45527;-83
2022/08/30 07:03:49;;;;;;;;;7.50;7.50;;;;;21.41;52.48;101175.03;5092293;28;45395;-82
2022/08/30 07:06:14;;;;;;;;;8.75;6.75;;;;;21.42;52.86;101167.91;5094764;28;44905;-82
2022/08/30 07:08:40;;;;;;;;;9.25;7.75;;;;;21.50;52.77;101183.03;5093243;28;45464;-82
2022/08/30 07:11:06;;;;;;;;;9.25;8.50;;;;;21.48;52.88;101168.81;5085913;28;45457;-82
2022/08/30 07:13:32;;;;;;;;;10.00;8.75;;;;;21.57;52.57;101191.94;5093025;28;45270;-83
2022/08/30 07:15:58;;;;;;;;;8.50;7.50;;;;;21.55;52.45;101183.91;5092749;28;45012;-83
2022/08/30 07:21:32;;;;;;;;;3.25;2.75;;;;;21.48;52.07;101166.13;5029475;28;45353;-82
2022/08/30 07:23:58;;;;;;;;;11.00;9.25;;;;;21.62;52.09;101188.38;5082604;28;45121;-82
2022/08/30 07:26:33;;;;;;;;;9.00;7.75;;;;;21.65;51.88;101190.13;5091629;28;44958;-82
2022/08/30 07:29:00;;;;;;;;;8.50;7.00;;;;;21.58;51.97;101175.91;5092931;28;45440;-83
2022/08/30 07:31:26;;;;;;;;;7.25;7.00;;;;;21.59;52.00;101171.44;5092897;28;45142;-81
2022/08/30 07:33:52;;;;;;;;;7.25;7.25;;;;;21.72;52.21;101185.63;5093033;28;44885;-82
2022/08/30 07:36:17;;;;;;;;;8.00;8.00;;;;;21.69;52.11;101180.31;5090140;28;45335;-82
2022/08/30 07:38:45;;;;;;;;;9.25;8.25;;;;;21.71;52.26;101179.38;5093402;28;45801;-82
2022/08/30 07:41:19;;;;;;;;;9.25;8.75;;;;;21.82;52.23;101188.28;5092018;28;45690;-83
2022/08/30 07:43:48;;;;;;;;;9.75;9.25;;;;;21.88;52.27;101185.56;5092210;28;44748;-83
2022/08/30 07:46:14;;;;;;;;;9.25;8.50;;;;;21.91;51.74;101192.69;5091960;28;45270;-83
2022/08/30 07:48:39;;;;;;;;;9.25;9.25;;;;;21.92;51.66;101198.91;5091887;28;45580;-82
2022/08/30 07:51:09;;;;;;;;;9.25;9.25;;;;;21.86;51.67;101178.44;5090746;28;45015;-82
2022/08/30 07:53:34;;;;;;;;;11.25;9.25;;;;;21.93;52.20;101190.91;5090348;28;45111;-83
2022/08/30 07:55:59;;;;;;;;;8.75;8.00;;;;;22.02;51.57;101204.25;5089237;28;45062;-83
2022/08/30 07:58:25;;;;;;;;;10.00;9.25;;;;;21.99;51.47;101198.00;5093394;28;45330;-83
2022/08/30 08:00:50;;;;;;;;;10.00;9.75;;;;;22.06;51.63;101208.66;5090052;28;49061;-82
2022/08/30 08:03:15;;;;;;;;;11.00;10.67;;;;;22.08;51.65;101206.88;5089816;28;52576;-83
2022/08/30 08:05:43;;;;;;;;;10.75;9.75;;;;;22.04;51.71;101194.41;5091898;28;45429;-83
2022/08/30 08:08:10;;;;;;;;;12.50;11.00;;;;;22.11;51.74;101209.56;5093096;28;45238;-80
2022/08/30 08:10:37;;;;;;;;;10.50;10.50;;;;;22.12;51.49;101203.34;5088966;27;45831;-83
2022/08/30 08:13:03;;;;;;;;;10.75;10.50;;;;;22.07;51.09;101191.72;5089707;28;45023;-82
2022/08/30 08:15:28;;;;;;;;;8.00;8.00;;;;;22.18;51.28;101210.44;5091371;28;45330;-83
2022/08/30 08:17:54;;;;;;;;;12.25;12.00;;;;;22.17;51.09;101207.75;5092068;28;46703;-83
2022/08/30 08:20:20;;;;;;;;;10.25;8.75;;;;;22.28;51.05;101217.50;5090126;28;45446;-83
2022/08/30 08:22:45;;;;;;;;;7.75;7.00;;;;;22.33;51.48;101217.50;5093725;28;45022;-83
2022/08/30 08:25:10;;;;;;;;;11.25;10.25;;;;;22.45;50.70;101227.22;5090841;28;45127;-83
2022/08/30 08:27:36;;;;;;;;;12.50;12.25;;;;;22.39;50.93;101212.09;5091393;28;45023;-83
2022/08/30 08:30:01;;;;;;;;;10.25;10.25;;;;;22.39;50.73;101206.72;5092984;28;44947;-83
2022/08/30 08:32:27;;;;;;;;;11.25;10.50;;;;;22.47;50.37;101207.56;5092488;28;45036;-83
2022/08/30 08:34:52;;;;;;;;;10.75;9.75;;;;;22.54;50.69;101237.88;5092449;28;45235;-83
2022/08/30 08:37:17;;;;;;;;;11.50;10.50;;;;;22.56;50.62;101233.38;5092069;28;50491;-83
2022/08/30 08:39:43;;;;;;;;;13.75;11.50;;;;;22.51;50.48;101228.09;5091466;28;45058;-84
2022/08/30 08:42:30;;;;;;;;;11.50;10.50;;;;;22.59;50.68;101244.97;5089863;28;45240;-83
2022/08/30 08:45:02;;;;;;;;;10.25;10.25;;;;;22.53;50.88;101238.78;5072421;28;44963;-83
2022/08/30 08:47:44;;;;;;;;;11.00;10.00;;;;;22.66;51.21;101252.09;5092260;28;46172;-83
2022/08/30 08:50:14;;;;;;;;;13.25;11.75;;;;;22.50;50.87;101212.88;5091719;28;45530;-83
2022/08/30 08:55:44;;;;;;;;;11.75;10.25;;;;;22.89;50.25;101267.13;5089646;28;45082;-83
2022/08/30 08:58:20;;;;;;;;;12.25;12.00;;;;;22.96;50.39;101265.31;5088635;28;46150;-82
2022/08/30 09:00:45;;;;;;;;;10.75;10.75;;;;;22.97;50.88;101246.53;5091431;28;45056;-83
2022/08/30 09:03:15;;;;;;;;;11.75;11.50;;;;;23.16;49.83;101272.28;5088827;28;44987;-83
2022/08/30 09:05:42;;;;;;;;;11.00;10.00;;;;;23.24;50.48;101263.25;5071758;28;45155;-83
2022/08/30 09:08:13;;;;;;;;;14.00;13.00;;;;;23.18;49.78;101234.72;5092458;28;45138;-83
2022/08/30 09:10:40;;;;;;;;;12.00;12.00;;;;;23.47;49.65;101258.56;5088401;28;45241;-83
2022/08/30 09:13:05;;;;;;;;;11.00;10.50;;;;;23.47;49.81;101247.84;5092868;28;44960;-82
2022/08/30 09:15:33;;;;;;;;;14.75;14.00;;;;;23.60;50.00;101260.22;5089768;28;45021;-83
2022/08/30 09:18:07;;;;;;;;;12.50;11.25;;;;;23.68;50.06;101253.00;5092565;28;45631;-83
2022/08/30 09:20:44;;;;;;;;;14.25;12.00;;;;;23.65;49.85;101242.31;5089379;28;45139;-83
2022/08/30 09:23:13;;;;;;;;;13.00;12.50;;;;;23.81;49.14;101261.81;5087705;28;45493;-83
2022/08/30 09:25:50;;;;;;;;;10.00;9.75;;;;;23.69;48.99;101240.44;5089635;28;45321;-82
2022/08/30 09:28:25;;;;;;;;;11.75;11.00;;;;;23.95;49.56;101272.38;5092259;28;44990;-83
2022/08/30 09:31:04;;;;;;;;;11.50;10.00;;;;;24.00;49.34;101270.53;5088961;28;45363;-82
2022/08/30 09:33:30;;;;;;;;;13.75;13.50;;;;;24.05;49.10;101267.78;5088645;28;45328;-83
2022/08/30 09:36:08;;;;;;;;;12.75;12.75;;;;;24.09;48.64;101262.38;5089271;28;45042;-83
2022/08/30 09:38:33;;;;;;;;;12.25;12.25;;;;;24.10;48.48;101250.72;5090206;28;45802;-83
2022/08/30 09:41:20;;;;;;;;;13.00;12.25;;;;;24.29;48.89;101272.84;5087141;28;45178;-83
2022/08/30 09:44:04;;;;;;;;;15.00;13.75;;;;;24.34;48.64;101270.09;5089569;28;45146;-82
2022/08/30 09:46:30;;;;;;;;;12.00;12.00;;;;;24.41;48.49;101269.13;5090976;28;45152;-83
2022/08/30 09:48:55;;;;;;;;;9.50;9.25;;;;;24.48;48.29;101273.47;5072759;28;46002;-83
2022/08/30 09:51:43;;;;;;;;;11.75;11.75;;;;;24.55;47.66;101275.19;5090651;28;44962;-83
2022/08/30 09:54:30;;;;;;;;;12.50;11.75;;;;;24.62;47.52;101282.25;5088348;28;45375;-82
2022/08/30 09:57:04;;;;;;;;;16.00;13.75;;;;;24.66;47.75;101273.22;5088464;28;45332;-82
2022/08/30 09:59:47;;;;;;;;;11.00;9.25;;;;;24.72;48.92;101277.63;5092201;28;45803;-83
2022/08/30 10:02:21;;;;;;;;;14.00;12.75;;;;;24.76;47.52;101273.97;5091009;28;45122;-82
2022/08/30 10:04:51;;;;;;;;;11.00;10.75;;;;;24.76;47.11;101282.03;5091943;28;44893;-83
2022/08/30 10:07:52;;;;;;;;;12.50;11.00;;;;;24.77;47.76;101281.13;5092451;28;45191;-83
2022/08/30 10:10:29;;;;;;;;;12.25;11.25;;;;;24.81;48.36;101272.09;5090309;28;45777;-83
2022/08/30 10:13:14;;;;;;;;;10.50;10.25;;;;;24.80;48.61;101259.56;5091855;28;45374;-83
2022/08/30 10:15:49;;;;;;;;;13.50;13.00;;;;;24.86;47.27;101272.91;5091434;28;44907;-82
2022/08/30 10:18:27;;;;;;;;;12.25;11.75;;;;;24.92;47.75;101275.50;5091716;28;45205;-83
2022/08/30 10:21:07;;;;;;;;;14.00;12.00;;;;;24.85;47.30;101246.94;5091501;28;45221;-83
2022/08/30 10:24:10;;;;;;;;;9.50;9.50;;;;;24.99;47.62;101259.28;5091252;28;45224;-83
2022/08/30 10:26:42;;;;;;;;;10.75;9.75;;;;;25.10;47.68;101263.59;5025239;28;45463;-82
2022/08/30 10:29:12;;;;;;;;;11.50;10.25;;;;;25.04;48.40;101247.53;5081157;28;45108;-82
2022/08/30 10:31:59;;;;;;;;;12.75;12.25;;;;;25.24;47.60;101279.50;5090616;28;45316;-83
2022/08/30 10:34:31;;;;;;;;;13.00;12.50;;;;;25.09;47.05;101248.38;5095353;28;45618;-83
2022/08/30 10:37:02;;;;;;;;;13.50;11.75;;;;;25.31;46.60;101280.25;5093263;28;45466;-83
2022/08/30 10:39:32;;;;;;;;;14.25;14.00;;;;;25.33;47.46;101278.44;5094736;28;45171;-83
2022/08/30 10:42:04;;;;;;;;;13.25;11.50;;;;;25.35;47.05;101284.69;5091328;28;45237;-83
2022/08/30 10:44:53;;;;;;;;;9.75;9.50;;;;;25.38;48.18;101284.63;5094676;28;45565;-83
2022/08/30 10:47:47;;;;;;;;;12.50;12.25;;;;;25.43;47.44;101280.94;5093807;28;44902;-82
2022/08/30 10:50:20;;;;;;;;;10.25;9.25;;;;;25.47;47.17;101279.97;5093200;28;45158;-83
2022/08/30 10:53:09;;;;;;;;;12.00;11.00;;;;;25.50;46.83;101276.31;5094110;28;45202;-83
2022/08/30 10:55:43;;;;;;;;;13.00;11.50;;;;;25.55;47.72;101273.56;5091152;28;45280;-82
2022/08/30 10:58:10;;;;;;;;;13.00;12.00;;;;;25.54;47.24;101275.34;5095088;28;45147;-83
2022/08/30 11:00:49;;;;;;;;;12.50;11.75;;;;;25.54;46.53;101272.66;5091016;28;45660;-83
2022/08/30 11:03:44;;;;;;;;;11.75;11.50;;;;;25.47;46.66;101261.13;5093344;28;45598;-83
2022/08/30 11:06:18;;;;;;;;;13.75;13.75;;;;;25.59;46.04;101270.78;5093277;28;45543;-83
2022/08/30 11:09:02;;;;;;;;;13.00;12.00;;;;;25.62;46.63;101275.22;5075948;28;45051;-82
2022/08/30 11:11:36;;;;;;;;;13.50;12.75;;;;;25.68;46.56;101269.72;5092166;28;45163;-83
2022/08/30 11:14:05;;;;;;;;;13.00;12.75;;;;;25.64;46.26;101258.13;5094369;28;45050;-82
2022/08/30 11:16:47;;;;;;;;;15.50;15.00;;;;;25.70;46.04;101260.69;5094697;28;45366;-83
2022/08/30 11:19:27;;;;;;;;;11.50;11.50;;;;;25.84;46.60;101273.03;5094780;28;44923;-83
2022/08/30 11:22:14;;;;;;;;;10.00;8.75;;;;;25.91;47.21;101274.66;5091720;28;45316;-83
2022/08/30 11:25:00;;;;;;;;;11.25;10.75;;;;;25.96;46.11;101270.97;5094138;28;45252;-83
2022/08/30 11:27:48;;;;;;;;;9.75;9.75;;;;;25.99;46.16;101275.41;5091446;28;45421;-83
2022/08/30 11:30:25;;;;;;;;;10.75;10.75;;;;;26.07;47.14;101273.44;5094782;28;44998;-83
2022/08/30 11:32:58;;;;;;;;;9.75;9.00;;;;;26.14;45.94;101276.88;5095151;28;45181;-83
2022/08/30 11:35:41;;;;;;;;;12.25;12.25;;;;;26.09;45.37;101251.84;5094034;28;45644;-83